createdAt,value
2023-05-21T00:02:00.365Z,14.71
2023-05-21T00:04:29.800Z,14.68
2023-05-21T00:06:57.313Z,14.66
2023-05-21T00:09:24.517Z,14.69
2023-05-21T00:11:51.528Z,14.59
2023-05-21T00:14:18.671Z,14.63
2023-05-21T00:16:47.158Z,14.56
2023-05-21T00:19:14.378Z,14.63
2023-05-21T00:21:41.576Z,14.71
2023-05-21T00:24:09.053Z,14.68
2023-05-21T00:26:36.422Z,14.57
2023-05-21T00:29:04.018Z,14.44
2023-05-21T00:31:32.282Z,14.47
2023-05-21T00:33:59.380Z,14.39
2023-05-21T00:36:26.475Z,14.43
2023-05-21T00:38:53.580Z,14.42
2023-05-21T00:41:23.015Z,14.34
2023-05-21T00:43:50.387Z,14.29
2023-05-21T00:46:21.000Z,14.24
2023-05-21T00:48:49.407Z,14.23
2023-05-21T00:51:18.573Z,14.19
2023-05-21T00:53:49.147Z,14.14
2023-05-21T00:56:16.385Z,14.12
2023-05-21T00:58:43.556Z,14.10
2023-05-21T01:01:13.946Z,14.17
2023-05-21T01:03:42.139Z,14.14
2023-05-21T01:06:11.428Z,14.08
2023-05-21T01:08:40.885Z,14.09
2023-05-21T01:11:09.769Z,14.08
2023-05-21T01:13:41.412Z,13.99
2023-05-21T01:16:09.400Z,13.99
2023-05-21T01:18:38.060Z,13.98
2023-05-21T01:21:07.470Z,13.92
2023-05-21T01:23:34.689Z,13.90
2023-05-21T01:26:01.887Z,13.84
2023-05-21T01:28:29.911Z,13.85
2023-05-21T01:31:01.724Z,13.80
2023-05-21T01:33:47.889Z,13.90
2023-05-21T01:36:26.862Z,13.87
2023-05-21T01:39:23.687Z,13.84
2023-05-21T01:41:54.860Z,13.89
2023-05-21T01:44:25.483Z,13.89
2023-05-21T01:46:54.934Z,13.89
2023-05-21T01:49:23.002Z,13.81
2023-05-21T01:51:50.453Z,13.84
2023-05-21T01:54:17.464Z,13.80
2023-05-21T01:56:44.442Z,13.70
2023-05-21T01:59:12.383Z,13.65
2023-05-21T02:01:39.502Z,13.63
2023-05-21T02:04:06.805Z,13.66
2023-05-21T02:06:35.918Z,13.66
2023-05-21T02:09:03.840Z,13.65
2023-05-21T02:11:31.370Z,13.67
2023-05-21T02:13:58.406Z,13.63
2023-05-21T02:16:26.207Z,13.63
2023-05-21T02:18:57.044Z,13.66
2023-05-21T02:21:24.102Z,13.76
2023-05-21T02:23:51.136Z,13.83
2023-05-21T02:26:18.446Z,13.75
2023-05-21T02:28:45.909Z,13.81
2023-05-21T02:31:12.945Z,13.80
2023-05-21T02:33:42.774Z,13.81
2023-05-21T02:36:13.525Z,13.93
2023-05-21T02:38:43.580Z,13.98
2023-05-21T02:41:12.681Z,14.06
2023-05-21T02:43:40.029Z,14.04
2023-05-21T02:46:07.922Z,14.11
2023-05-21T02:48:35.507Z,14.15
2023-05-21T02:51:02.606Z,14.17
2023-05-21T02:53:29.591Z,14.22
2023-05-21T02:55:56.954Z,14.19
2023-05-21T02:58:25.296Z,14.22
2023-05-21T03:00:53.727Z,14.24
2023-05-21T03:03:21.115Z,14.27
2023-05-21T03:05:48.550Z,14.25
2023-05-21T03:08:15.905Z,14.26
2023-05-21T03:10:43.038Z,14.23
2023-05-21T03:13:10.454Z,14.29
2023-05-21T03:15:39.293Z,14.28
2023-05-21T03:18:06.730Z,14.34
2023-05-21T03:20:34.207Z,14.32
2023-05-21T03:23:04.329Z,14.35
2023-05-21T03:25:31.449Z,14.35
2023-05-21T03:27:58.815Z,14.40
2023-05-21T03:30:26.096Z,14.42
2023-05-21T03:32:53.192Z,14.37
2023-05-21T03:35:20.251Z,14.38
2023-05-21T03:37:47.414Z,14.33
2023-05-21T03:40:14.574Z,14.29
2023-05-21T03:42:41.737Z,14.31
2023-05-21T03:45:09.559Z,14.25
2023-05-21T03:47:36.880Z,14.29
2023-05-21T03:50:05.718Z,14.32
2023-05-21T03:52:32.732Z,14.30
2023-05-21T03:54:59.764Z,14.29
2023-05-21T03:57:26.801Z,14.30
2023-05-21T03:59:53.844Z,14.25
2023-05-21T04:02:22.882Z,14.28
2023-05-21T04:04:51.673Z,14.23
2023-05-21T04:07:19.437Z,14.27
2023-05-21T04:09:46.970Z,14.27
2023-05-21T04:12:14.282Z,14.27
2023-05-21T04:14:41.686Z,14.21
2023-05-21T04:17:09.073Z,14.23
2023-05-21T04:19:36.564Z,14.20
2023-05-21T04:22:03.757Z,14.20
2023-05-21T04:24:31.232Z,14.22
2023-05-21T04:27:01.403Z,14.23
2023-05-21T04:29:30.014Z,14.17
2023-05-21T04:31:57.243Z,14.15
2023-05-21T04:34:24.864Z,14.18
2023-05-21T04:36:52.103Z,14.18
2023-05-21T04:39:19.132Z,14.15
2023-05-21T04:41:46.225Z,14.14
2023-05-21T04:44:15.093Z,14.22
2023-05-21T04:46:42.843Z,14.19
2023-05-21T04:49:10.469Z,14.20
2023-05-21T04:51:37.977Z,14.28
2023-05-21T04:54:05.072Z,14.28
2023-05-21T04:56:32.115Z,14.29
2023-05-21T04:58:59.919Z,14.33
2023-05-21T05:01:29.481Z,14.36
2023-05-21T05:03:56.676Z,14.38
2023-05-21T05:06:25.998Z,14.42
2023-05-21T05:08:53.294Z,14.47
2023-05-21T05:11:20.890Z,14.52
2023-05-21T05:13:48.060Z,14.54
2023-05-21T05:16:17.940Z,14.58
2023-05-21T05:18:45.076Z,14.61
2023-05-21T05:21:12.234Z,14.66
2023-05-21T05:23:39.224Z,14.71
2023-05-21T05:26:06.387Z,14.70
2023-05-21T05:28:33.481Z,14.72
2023-05-21T05:31:00.509Z,14.75
2023-05-21T05:33:27.663Z,14.82
2023-05-21T05:35:54.716Z,14.89
2023-05-21T05:38:21.820Z,14.90
2023-05-21T05:40:48.814Z,14.98
2023-05-21T05:43:16.431Z,14.98
2023-05-21T05:45:43.636Z,15.02
2023-05-21T05:48:10.716Z,15.04
2023-05-21T05:50:37.823Z,15.07
2023-05-21T05:53:04.831Z,15.14
2023-05-21T05:55:31.850Z,15.17
2023-05-21T05:57:58.938Z,15.23
2023-05-21T06:00:26.321Z,15.24
2023-05-21T06:02:53.866Z,15.29
2023-05-21T06:05:21.060Z,15.34
2023-05-21T06:07:48.137Z,15.40
2023-05-21T06:10:15.269Z,15.47
2023-05-21T06:12:42.364Z,15.54
2023-05-21T06:15:10.097Z,15.57
2023-05-21T06:17:37.181Z,15.60
2023-05-21T06:20:06.699Z,15.65
2023-05-21T06:22:34.063Z,15.71
2023-05-21T06:25:01.226Z,15.73
2023-05-21T06:27:28.231Z,15.81
2023-05-21T06:29:55.262Z,15.82
2023-05-21T06:32:23.187Z,16.00
2023-05-21T06:34:50.322Z,15.95
2023-05-21T06:37:26.540Z,15.96
2023-05-21T06:39:53.780Z,16.09
2023-05-21T06:42:20.884Z,16.12
2023-05-21T06:44:47.917Z,16.17
2023-05-21T06:47:14.966Z,16.22
2023-05-21T06:49:42.067Z,16.24
2023-05-21T06:52:09.168Z,16.28
2023-05-21T06:54:36.438Z,16.38
2023-05-21T06:57:03.735Z,16.37
2023-05-21T06:59:31.606Z,16.47
2023-05-21T07:01:58.726Z,16.56
2023-05-21T07:04:25.771Z,16.55
2023-05-21T07:06:53.963Z,16.72
2023-05-21T07:09:21.193Z,16.78
2023-05-21T07:11:48.238Z,16.85
2023-05-21T07:14:15.591Z,16.94
2023-05-21T07:16:42.662Z,17.05
2023-05-21T07:19:09.770Z,17.03
2023-05-21T07:21:36.837Z,17.09
2023-05-21T07:24:04.093Z,17.05
2023-05-21T07:26:31.118Z,17.05
2023-05-21T07:28:58.156Z,17.18
2023-05-21T07:31:26.449Z,17.26
2023-05-21T07:33:53.796Z,17.37
2023-05-21T07:36:21.123Z,17.45
2023-05-21T07:38:48.166Z,17.50
2023-05-21T07:41:17.112Z,17.52
2023-05-21T07:43:45.537Z,17.58
2023-05-21T07:46:12.516Z,17.63
2023-05-21T07:48:39.530Z,17.73
2023-05-21T07:51:06.757Z,17.74
2023-05-21T07:53:34.030Z,17.96
2023-05-21T07:56:01.248Z,18.11
2023-05-21T07:58:28.364Z,18.06
2023-05-21T08:00:55.848Z,18.19
2023-05-21T08:03:23.030Z,18.24
2023-05-21T08:05:50.818Z,18.26
2023-05-21T08:08:20.149Z,18.31
2023-05-21T08:10:50.729Z,18.44
2023-05-21T08:13:17.882Z,18.65
2023-05-21T08:15:45.218Z,18.77
2023-05-21T08:18:12.568Z,18.91
2023-05-21T08:20:39.902Z,18.83
2023-05-21T08:23:07.431Z,19.08
2023-05-21T08:25:34.517Z,18.97
2023-05-21T08:28:01.703Z,19.14
2023-05-21T08:30:28.680Z,19.02
2023-05-21T08:32:55.824Z,19.23
2023-05-21T08:35:22.951Z,19.33
2023-05-21T08:37:50.427Z,19.31
2023-05-21T08:40:17.734Z,19.43
2023-05-21T08:42:49.542Z,19.64
2023-05-21T08:45:23.398Z,19.68
2023-05-21T08:47:57.292Z,19.59
2023-05-21T08:50:27.864Z,19.75
2023-05-21T08:52:55.684Z,19.82
2023-05-21T08:55:23.695Z,20.03
2023-05-21T08:57:53.664Z,20.24
2023-05-21T09:00:21.236Z,20.24
2023-05-21T09:02:48.439Z,20.21
2023-05-21T09:05:16.740Z,20.36
2023-05-21T09:07:50.400Z,20.13
2023-05-21T09:10:23.706Z,20.52
2023-05-21T09:12:51.439Z,20.49
2023-05-21T09:15:18.935Z,20.52
2023-05-21T09:17:49.239Z,20.61
2023-05-21T09:20:16.786Z,20.91
2023-05-21T09:22:46.152Z,20.90
2023-05-21T09:25:17.285Z,21.14
2023-05-21T09:27:44.658Z,21.19
2023-05-21T09:30:17.383Z,21.01
2023-05-21T09:32:46.175Z,21.25
2023-05-21T09:35:16.475Z,21.43
2023-05-21T09:37:47.600Z,21.26
2023-05-21T09:40:22.802Z,21.53
2023-05-21T09:42:52.742Z,21.47
2023-05-21T09:45:28.181Z,21.62
2023-05-21T09:47:56.735Z,21.68
2023-05-21T09:50:27.816Z,21.76
2023-05-21T09:52:55.668Z,21.86
2023-05-21T09:55:24.056Z,22.00
2023-05-21T09:57:52.151Z,22.06
2023-05-21T10:00:24.250Z,22.09
2023-05-21T10:02:56.314Z,22.07
2023-05-21T10:05:28.832Z,22.33
2023-05-21T10:08:04.643Z,22.37
2023-05-21T10:10:32.650Z,22.58
2023-05-21T10:13:06.967Z,22.62
2023-05-21T10:15:41.477Z,22.42
2023-05-21T10:18:12.487Z,22.49
2023-05-21T10:20:40.393Z,22.41
2023-05-21T10:23:08.168Z,22.82
2023-05-21T10:25:36.240Z,22.73
2023-05-21T10:28:05.065Z,22.61
2023-05-21T10:30:32.883Z,22.73
2023-05-21T10:33:03.014Z,23.00
2023-05-21T10:35:30.925Z,23.18
2023-05-21T10:37:59.142Z,23.38
2023-05-21T10:40:26.263Z,23.25
2023-05-21T10:43:16.874Z,23.41
2023-05-21T10:46:07.583Z,23.43
2023-05-21T10:48:57.798Z,23.69
2023-05-21T10:51:30.669Z,23.58
2023-05-21T10:54:54.473Z,23.47
2023-05-21T10:57:51.917Z,23.52
2023-05-21T11:00:21.217Z,23.43
2023-05-21T11:02:53.022Z,23.39
2023-05-21T11:05:55.217Z,23.36
2023-05-21T11:08:24.581Z,23.51
2023-05-21T11:10:59.014Z,23.54
2023-05-21T11:13:27.627Z,23.43
2023-05-21T11:16:05.384Z,23.70
2023-05-21T11:18:38.846Z,23.44
2023-05-21T11:21:10.147Z,23.68
2023-05-21T11:23:52.044Z,24.00
2023-05-21T11:26:24.635Z,24.09
2023-05-21T11:29:12.400Z,23.71
2023-05-21T11:31:39.983Z,23.91
2023-05-21T11:34:28.427Z,23.78
2023-05-21T11:37:30.499Z,23.90
2023-05-21T11:40:16.515Z,23.91
2023-05-21T11:42:44.279Z,23.78
2023-05-21T11:45:11.574Z,23.81
2023-05-21T11:47:41.825Z,23.89
2023-05-21T11:50:14.602Z,23.82
2023-05-21T11:52:42.378Z,24.00
2023-05-21T11:55:11.371Z,24.20
2023-05-21T11:57:44.933Z,24.05
2023-05-21T12:00:17.056Z,24.35
2023-05-21T12:02:51.417Z,24.28
2023-05-21T12:05:18.893Z,24.11
2023-05-21T12:07:50.499Z,24.09
2023-05-21T12:10:21.674Z,24.18
2023-05-21T12:12:55.554Z,24.35
2023-05-21T12:15:26.625Z,24.69
2023-05-21T12:17:54.835Z,24.29
2023-05-21T12:20:22.720Z,24.11
2023-05-21T12:22:50.540Z,24.35
2023-05-21T12:25:21.758Z,24.21
2023-05-21T12:27:52.810Z,24.47
2023-05-21T12:30:21.226Z,24.53
2023-05-21T12:32:49.512Z,24.36
2023-05-21T12:35:24.392Z,24.30
2023-05-21T12:37:52.377Z,24.57
2023-05-21T12:40:20.379Z,24.59
2023-05-21T12:42:47.620Z,24.62
2023-05-21T12:45:15.029Z,24.58
2023-05-21T12:47:47.571Z,24.71
2023-05-21T12:50:14.880Z,24.70
2023-05-21T12:52:45.336Z,24.70
2023-05-21T12:55:15.047Z,24.69
2023-05-21T12:57:43.894Z,24.70
2023-05-21T13:00:11.963Z,25.04
2023-05-21T13:02:45.468Z,24.85
2023-05-21T13:05:18.417Z,24.25
2023-05-21T13:07:47.691Z,24.84
2023-05-21T13:10:16.861Z,24.95
2023-05-21T13:12:44.997Z,25.02
2023-05-21T13:15:12.685Z,25.15
2023-05-21T13:17:39.817Z,24.87
2023-05-21T13:20:17.670Z,24.87
2023-05-21T13:22:48.339Z,25.01
2023-05-21T13:25:24.932Z,25.05
2023-05-21T13:27:53.421Z,25.00
2023-05-21T13:30:22.323Z,24.85
2023-05-21T13:32:49.693Z,24.95
2023-05-21T13:35:17.239Z,25.00
2023-05-21T13:37:45.269Z,25.23
2023-05-21T13:40:15.281Z,24.96
2023-05-21T13:42:48.850Z,25.00
2023-05-21T13:45:19.602Z,25.12
2023-05-21T13:47:47.868Z,25.02
2023-05-21T13:50:15.953Z,24.91
2023-05-21T13:52:43.123Z,24.83
2023-05-21T13:55:10.778Z,25.11
2023-05-21T13:57:38.535Z,24.92
2023-05-21T14:00:09.183Z,24.85
2023-05-21T14:02:36.478Z,24.86
2023-05-21T14:05:04.401Z,25.02
2023-05-21T14:07:31.474Z,25.33
2023-05-21T14:09:58.476Z,25.10
2023-05-21T14:12:26.703Z,25.00
2023-05-21T14:14:53.678Z,25.15
2023-05-21T14:17:20.862Z,25.11
2023-05-21T14:19:48.164Z,25.11
2023-05-21T14:22:15.326Z,24.97
2023-05-21T14:24:42.491Z,24.86
2023-05-21T14:27:09.542Z,24.99
2023-05-21T14:29:36.518Z,25.13
2023-05-21T14:32:03.624Z,25.24
2023-05-21T14:34:30.766Z,25.36
2023-05-21T14:36:57.794Z,25.26
2023-05-21T14:39:24.985Z,25.32
2023-05-21T14:41:51.982Z,25.10
2023-05-21T14:44:19.869Z,25.12
2023-05-21T14:46:46.995Z,25.14
2023-05-21T14:49:14.641Z,25.23
2023-05-21T14:51:43.620Z,25.37
2023-05-21T14:54:10.884Z,25.14
2023-05-21T14:56:37.895Z,25.27
2023-05-21T14:59:04.983Z,25.14
2023-05-21T15:01:32.270Z,25.14
2023-05-21T15:03:59.872Z,25.00
2023-05-21T15:06:27.826Z,25.18
2023-05-21T15:08:55.006Z,25.01
2023-05-21T15:11:22.447Z,25.18
2023-05-21T15:13:49.491Z,25.18
2023-05-21T15:16:18.714Z,25.34
2023-05-21T15:18:46.783Z,24.83
2023-05-21T15:21:13.856Z,25.13
2023-05-21T15:23:40.956Z,25.21
2023-05-21T15:26:09.185Z,25.32
2023-05-21T15:28:36.217Z,24.94
2023-05-21T15:31:03.417Z,25.16
2023-05-21T15:33:30.470Z,25.12
2023-05-21T15:35:57.544Z,25.16
2023-05-21T15:38:24.638Z,25.13
2023-05-21T15:40:51.758Z,25.27
2023-05-21T15:43:18.855Z,24.90
2023-05-21T15:45:45.850Z,24.83
2023-05-21T15:48:13.210Z,24.71
2023-05-21T15:50:40.502Z,25.18
2023-05-21T15:53:07.568Z,25.09
2023-05-21T15:55:34.949Z,25.02
2023-05-21T15:58:03.730Z,24.78
2023-05-21T16:00:30.780Z,25.09
2023-05-21T16:02:58.224Z,24.89
2023-05-21T16:05:26.507Z,24.78
2023-05-21T16:07:53.670Z,25.04
2023-05-21T16:10:21.986Z,24.44
2023-05-21T16:12:49.192Z,24.66
2023-05-21T16:15:16.374Z,24.83
2023-05-21T16:17:43.522Z,24.89
2023-05-21T16:20:11.339Z,25.00
2023-05-21T16:22:38.448Z,24.58
2023-05-21T16:25:06.253Z,24.45
2023-05-21T16:27:33.270Z,25.00
2023-05-21T16:30:00.341Z,24.47
2023-05-21T16:32:28.564Z,24.74
2023-05-21T16:34:55.734Z,24.71
2023-05-21T16:37:22.784Z,24.58
2023-05-21T16:39:49.859Z,24.85
2023-05-21T16:42:16.902Z,24.81
2023-05-21T16:44:43.935Z,24.77
2023-05-21T16:47:11.032Z,24.62
2023-05-21T16:49:38.049Z,24.72
2023-05-21T16:52:05.495Z,24.77
2023-05-21T16:54:33.446Z,24.86
2023-05-21T16:57:00.460Z,24.84
2023-05-21T16:59:27.899Z,24.39
2023-05-21T17:01:58.691Z,24.51
2023-05-21T17:04:27.036Z,24.44
2023-05-21T17:06:54.176Z,24.27
2023-05-21T17:09:24.257Z,24.31
2023-05-21T17:11:51.460Z,24.24
2023-05-21T17:14:27.000Z,24.13
2023-05-21T17:17:00.739Z,24.16
2023-05-21T17:19:28.074Z,24.11
2023-05-21T17:21:56.065Z,24.10
2023-05-21T17:24:23.145Z,24.09
2023-05-21T17:26:50.195Z,24.07
2023-05-21T17:29:17.359Z,24.02
2023-05-21T17:31:44.472Z,24.00
2023-05-21T17:34:12.008Z,23.95
2023-05-21T17:36:39.080Z,23.91
2023-05-21T17:39:06.119Z,23.85
2023-05-21T17:41:33.138Z,23.78
2023-05-21T17:44:00.179Z,23.70
2023-05-21T17:46:27.265Z,23.59
2023-05-21T17:48:54.295Z,23.64
2023-05-21T17:51:21.307Z,23.52
2023-05-21T17:53:48.475Z,23.49
2023-05-21T17:56:15.546Z,23.40
2023-05-21T17:58:42.602Z,23.35
2023-05-21T18:01:09.838Z,23.30
2023-05-21T18:03:36.967Z,23.33
2023-05-21T18:06:04.311Z,23.37
2023-05-21T18:08:31.346Z,23.36
2023-05-21T18:10:58.426Z,23.23
2023-05-21T18:13:25.458Z,23.23
2023-05-21T18:15:52.508Z,23.24
2023-05-21T18:18:21.629Z,23.10
2023-05-21T18:20:50.236Z,23.00
2023-05-21T18:23:17.999Z,22.87
2023-05-21T18:25:46.217Z,22.88
2023-05-21T18:28:13.280Z,22.87
2023-05-21T18:30:40.290Z,22.83
2023-05-21T18:33:08.511Z,22.67
2023-05-21T18:35:35.636Z,22.58
2023-05-21T18:38:04.172Z,22.62
2023-05-21T18:40:33.233Z,22.58
2023-05-21T18:43:00.721Z,22.45
2023-05-21T18:45:28.080Z,22.42
2023-05-21T18:47:55.760Z,22.36
2023-05-21T18:50:22.864Z,22.28
2023-05-21T18:52:56.070Z,22.23
2023-05-21T18:55:23.504Z,22.13
2023-05-21T18:57:50.861Z,22.06
2023-05-21T19:00:18.433Z,22.09
2023-05-21T19:02:47.318Z,21.84
2023-05-21T19:05:14.554Z,21.90
2023-05-21T19:07:41.960Z,21.82
2023-05-21T19:10:11.601Z,21.81
2023-05-21T19:12:39.550Z,21.68
2023-05-21T19:15:07.860Z,21.56
2023-05-21T19:17:36.260Z,21.59
2023-05-21T19:20:09.125Z,21.54
2023-05-21T19:22:37.263Z,21.52
2023-05-21T19:25:05.163Z,21.34
2023-05-21T19:27:32.331Z,21.28
2023-05-21T19:29:59.317Z,21.29
2023-05-21T19:32:26.322Z,21.23
2023-05-21T19:34:53.403Z,21.15
2023-05-21T19:37:20.583Z,21.16
2023-05-21T19:39:50.032Z,21.01
2023-05-21T19:42:19.853Z,20.94
2023-05-21T19:44:47.095Z,20.92
2023-05-21T19:47:14.376Z,20.91
2023-05-21T19:49:41.385Z,20.90
2023-05-21T19:52:08.483Z,20.75
2023-05-21T19:54:35.706Z,20.77
2023-05-21T19:57:03.423Z,20.67
2023-05-21T19:59:30.461Z,20.67
2023-05-21T20:01:57.548Z,20.55
2023-05-21T20:04:24.647Z,20.43
2023-05-21T20:06:52.206Z,20.40
2023-05-21T20:09:19.247Z,20.35
2023-05-21T20:11:46.472Z,20.29
2023-05-21T20:14:13.563Z,20.17
2023-05-21T20:16:42.404Z,20.11
2023-05-21T20:19:10.910Z,20.04
2023-05-21T20:21:38.019Z,19.97
2023-05-21T20:24:05.779Z,19.93
2023-05-21T20:26:34.980Z,19.90
2023-05-21T20:29:02.063Z,19.86
2023-05-21T20:31:29.268Z,19.74
2023-05-21T20:33:56.415Z,19.64
2023-05-21T20:36:23.882Z,19.62
2023-05-21T20:38:50.973Z,19.58
2023-05-21T20:41:18.159Z,19.50
2023-05-21T20:43:45.507Z,19.48
2023-05-21T20:46:12.577Z,19.45
2023-05-21T20:48:39.745Z,19.36
2023-05-21T20:51:06.886Z,19.29
2023-05-21T20:53:33.913Z,19.17
2023-05-21T20:56:01.648Z,19.18
2023-05-21T20:58:28.894Z,19.13
2023-05-21T21:00:55.923Z,19.05
2023-05-21T21:03:23.135Z,18.98
2023-05-21T21:05:50.714Z,18.92
2023-05-21T21:08:17.734Z,18.87
2023-05-21T21:10:46.977Z,18.79
2023-05-21T21:13:14.717Z,18.74
2023-05-21T21:15:43.779Z,18.65
2023-05-21T21:18:12.576Z,18.62
2023-05-21T21:20:41.216Z,18.61
2023-05-21T21:23:08.695Z,18.50
2023-05-21T21:25:35.912Z,18.48
2023-05-21T21:28:02.976Z,18.47
2023-05-21T21:30:30.438Z,18.48
2023-05-21T21:32:57.615Z,18.44
2023-05-21T21:35:24.674Z,18.47
2023-05-21T21:37:51.723Z,18.43
2023-05-21T21:40:18.813Z,18.38
2023-05-21T21:42:46.379Z,18.38
2023-05-21T21:45:13.499Z,18.29
2023-05-21T21:47:40.619Z,18.22
2023-05-21T21:50:09.766Z,18.20
2023-05-21T21:52:40.186Z,18.14
2023-05-21T21:55:11.253Z,18.15
2023-05-21T21:57:39.795Z,18.07
2023-05-21T22:00:15.609Z,18.06
2023-05-21T22:02:43.683Z,18.00
2023-05-21T22:05:14.767Z,17.98
2023-05-21T22:07:46.526Z,17.94
2023-05-21T22:10:15.995Z,17.91
2023-05-21T22:12:43.823Z,17.85
2023-05-21T22:15:24.972Z,17.76
2023-05-21T22:17:52.209Z,17.69
2023-05-21T22:20:19.697Z,17.68
2023-05-21T22:22:47.090Z,17.63
2023-05-21T22:25:14.559Z,17.59
2023-05-21T22:27:43.137Z,17.59
2023-05-21T22:30:11.053Z,17.59
2023-05-21T22:32:38.344Z,17.44
2023-05-21T22:35:06.314Z,17.42
2023-05-21T22:37:33.342Z,17.33
2023-05-21T22:40:00.519Z,17.25
2023-05-21T22:42:27.622Z,17.24
2023-05-21T22:44:54.660Z,17.23
2023-05-21T22:47:23.855Z,17.18
2023-05-21T22:49:53.647Z,17.10
2023-05-21T22:52:24.346Z,17.11
2023-05-21T22:54:54.642Z,17.10
2023-05-21T22:57:21.893Z,17.03
2023-05-21T22:59:49.113Z,16.97
2023-05-21T23:02:16.878Z,16.93
2023-05-21T23:04:44.891Z,16.91
2023-05-21T23:07:12.555Z,16.89
2023-05-21T23:09:39.817Z,16.86
2023-05-21T23:12:07.736Z,16.85
2023-05-21T23:14:34.892Z,16.79
2023-05-21T23:17:02.359Z,16.78
2023-05-21T23:19:29.928Z,16.75
2023-05-21T23:21:57.220Z,16.76
2023-05-21T23:24:24.286Z,16.75
2023-05-21T23:26:51.345Z,16.67
2023-05-21T23:29:19.137Z,16.63
2023-05-21T23:31:46.986Z,16.60
2023-05-21T23:34:14.330Z,16.57
2023-05-21T23:36:41.494Z,16.52
2023-05-21T23:39:10.049Z,16.52
2023-05-21T23:41:38.040Z,16.49
2023-05-21T23:44:05.482Z,16.45
2023-05-21T23:46:32.516Z,16.41
2023-05-21T23:49:00.073Z,16.43
2023-05-21T23:51:27.322Z,16.36
2023-05-21T23:53:55.025Z,16.34
2023-05-21T23:56:22.675Z,16.34
2023-05-21T23:58:50.920Z,16.26
